This is the latest recevied weather packets stored in our database for station/object DA6VK-10. If no packets are shown the sender has not sent any weather packets the latest 10 day(s).
| Time | Temp. | Humidity | Pressure | Rain* | Wind** | Luminosity | Snow |
|---|---|---|---|---|---|---|---|
| 1777725990 | 25° C | 34% | 1020.7 hPa | - | - | - | - |
| 1777725914 | 24.44° C | 35% | 1020.7 hPa | - | - | - | - |
| 1777725889 | 24.44° C | 35% | 1020.8 hPa | - | - | - | - |
| 1777725271 | 25° C | 34% | 1020.8 hPa | - | - | - | - |
| 1777724961 | 24.44° C | 34% | 1020.8 hPa | - | - | - | - |
| 1777724905 | 24.44° C | 35% | 1020.7 hPa | - | - | - | - |
| 1777652978 | 30° C | 12% | 1024.3 hPa | - | - | - | - |
| 1777652077 | 30° C | 13% | 1024.2 hPa | - | - | - | - |
| 1777651176 | 29.44° C | 13% | 1024.3 hPa | - | - | - | - |
| 1777650275 | 29.44° C | 13% | 1024.4 hPa | - | - | - | - |
| 1777649374 | 28.89° C | 12% | 1024.4 hPa | - | - | - | - |
| 1777648473 | 28.89° C | 14% | 1024.5 hPa | - | - | - | - |
| 1777647573 | 28.33° C | 14% | 1024.7 hPa | - | - | - | - |
| 1777645771 | 27.78° C | 14% | 1025 hPa | - | - | - | - |
| 1777640366 | 24.44° C | 18% | 1025.8 hPa | - | - | - | - |
| 1777638564 | 23.33° C | 18% | 1026.2 hPa | - | - | - | - |
| 1777637664 | 22.78° C | 19% | 1026.3 hPa | - | - | - | - |
| 1777636763 | 22.78° C | 19% | 1026.4 hPa | - | - | - | - |
| 1777634961 | 20° C | 20% | 1026.6 hPa | - | - | - | - |
| 1777633159 | 19.44° C | 21% | 1026.8 hPa | - | - | - | - |
| 1777625953 | 16.67° C | 22% | 1027.4 hPa | - | - | - | - |
| 1777625052 | 16.67° C | 21% | 1027.5 hPa | - | - | - | - |
| 1777622349 | 15° C | 24% | 1027.6 hPa | - | - | - | - |
| 1777620548 | 14.44° C | 26% | 1027.6 hPa | - | - | - | - |
| 1777617844 | 13.33° C | 32% | 1027.4 hPa | - | - | - | - |
* Rain since midnight (hover to see other rain measurements)
** Current wind speed in m/s (hover to see current wind gust speed)